sensor_id;sensor_type;location;lat;lon;timestamp;temperature;humidity
34726;DHT22;20951;50.818;4.344;2022-12-20T00:01:13;13.00;99.90
34726;DHT22;20951;50.818;4.344;2022-12-20T00:03:40;13.00;99.90
34726;DHT22;20951;50.818;4.344;2022-12-20T00:06:06;12.90;99.90
34726;DHT22;20951;50.818;4.344;2022-12-20T00:08:32;12.70;99.90
34726;DHT22;20951;50.818;4.344;2022-12-20T00:11:02;12.60;99.90
34726;DHT22;20951;50.818;4.344;2022-12-20T00:13:28;12.50;99.90
34726;DHT22;20951;50.818;4.344;2022-12-20T00:16:11;12.50;99.90
34726;DHT22;20951;50.818;4.344;2022-12-20T00:18:38;12.60;99.90
34726;DHT22;20951;50.818;4.344;2022-12-20T00:21:05;12.60;99.90
34726;DHT22;20951;50.818;4.344;2022-12-20T00:23:33;12.50;99.90
34726;DHT22;20951;50.818;4.344;2022-12-20T00:26:00;12.50;99.90
34726;DHT22;20951;50.818;4.344;2022-12-20T00:28:26;12.40;99.90
34726;DHT22;20951;50.818;4.344;2022-12-20T00:30:53;12.30;99.90
34726;DHT22;20951;50.818;4.344;2022-12-20T00:33:19;12.30;99.90
34726;DHT22;20951;50.818;4.344;2022-12-20T00:35:45;12.20;99.90
34726;DHT22;20951;50.818;4.344;2022-12-20T00:38:11;12.20;99.90
34726;DHT22;20951;50.818;4.344;2022-12-20T00:40:36;12.20;99.90
34726;DHT22;20951;50.818;4.344;2022-12-20T00:43:02;12.20;99.90
34726;DHT22;20951;50.818;4.344;2022-12-20T00:45:28;12.20;99.90
34726;DHT22;20951;50.818;4.344;2022-12-20T00:47:54;12.30;99.90
34726;DHT22;20951;50.818;4.344;2022-12-20T00:50:20;12.30;99.90
34726;DHT22;20951;50.818;4.344;2022-12-20T00:52:46;12.40;99.90
34726;DHT22;20951;50.818;4.344;2022-12-20T00:55:12;12.30;99.90
34726;DHT22;20951;50.818;4.344;2022-12-20T00:57:37;12.20;99.90
34726;DHT22;20951;50.818;4.344;2022-12-20T01:00:04;12.10;99.90
34726;DHT22;20951;50.818;4.344;2022-12-20T01:02:31;12.20;99.90
34726;DHT22;20951;50.818;4.344;2022-12-20T01:04:57;12.20;99.90
34726;DHT22;20951;50.818;4.344;2022-12-20T01:07:23;12.20;99.90
34726;DHT22;20951;50.818;4.344;2022-12-20T01:09:49;12.20;99.90
34726;DHT22;20951;50.818;4.344;2022-12-20T01:12:15;12.20;99.90
34726;DHT22;20951;50.818;4.344;2022-12-20T01:14:41;12.30;99.90
34726;DHT22;20951;50.818;4.344;2022-12-20T01:17:07;12.40;99.90
34726;DHT22;20951;50.818;4.344;2022-12-20T01:19:33;12.40;99.90
34726;DHT22;20951;50.818;4.344;2022-12-20T01:21:58;12.50;99.90
34726;DHT22;20951;50.818;4.344;2022-12-20T01:24:24;12.50;99.90
34726;DHT22;20951;50.818;4.344;2022-12-20T01:26:50;12.40;99.90
34726;DHT22;20951;50.818;4.344;2022-12-20T01:29:16;12.40;99.90
34726;DHT22;20951;50.818;4.344;2022-12-20T01:31:42;12.30;99.90
34726;DHT22;20951;50.818;4.344;2022-12-20T01:34:08;12.30;99.90
34726;DHT22;20951;50.818;4.344;2022-12-20T01:36:35;12.40;99.90
34726;DHT22;20951;50.818;4.344;2022-12-20T01:41:34;12.30;99.90
34726;DHT22;20951;50.818;4.344;2022-12-20T01:46:50;12.30;99.90
34726;DHT22;20951;50.818;4.344;2022-12-20T01:52:12;12.10;99.90
34726;DHT22;20951;50.818;4.344;2022-12-20T01:57:09;11.90;99.90
34726;DHT22;20951;50.818;4.344;2022-12-20T01:59:38;12.00;99.90
34726;DHT22;20951;50.818;4.344;2022-12-20T02:02:08;12.00;99.90
34726;DHT22;20951;50.818;4.344;2022-12-20T02:04:35;12.00;99.90
34726;DHT22;20951;50.818;4.344;2022-12-20T02:07:02;12.00;99.90
34726;DHT22;20951;50.818;4.344;2022-12-20T02:09:31;11.90;99.90
34726;DHT22;20951;50.818;4.344;2022-12-20T02:12:09;12.00;99.90
34726;DHT22;20951;50.818;4.344;2022-12-20T02:20:56;12.10;99.90
34726;DHT22;20951;50.818;4.344;2022-12-20T02:24:12;12.10;99.90
34726;DHT22;20951;50.818;4.344;2022-12-20T02:27:23;12.10;99.90
34726;DHT22;20951;50.818;4.344;2022-12-20T02:30:13;12.20;99.90
34726;DHT22;20951;50.818;4.344;2022-12-20T02:35:22;12.20;99.90
34726;DHT22;20951;50.818;4.344;2022-12-20T02:37:51;12.30;99.90
34726;DHT22;20951;50.818;4.344;2022-12-20T02:40:22;12.40;99.90
34726;DHT22;20951;50.818;4.344;2022-12-20T02:42:52;12.20;99.90
34726;DHT22;20951;50.818;4.344;2022-12-20T02:45:21;12.40;99.90
34726;DHT22;20951;50.818;4.344;2022-12-20T02:47:53;12.40;99.90
34726;DHT22;20951;50.818;4.344;2022-12-20T02:50:25;12.40;99.90
34726;DHT22;20951;50.818;4.344;2022-12-20T02:52:53;12.30;99.90
34726;DHT22;20951;50.818;4.344;2022-12-20T02:55:23;12.40;99.90
34726;DHT22;20951;50.818;4.344;2022-12-20T02:57:59;12.40;99.90
34726;DHT22;20951;50.818;4.344;2022-12-20T03:00:32;12.50;99.90
34726;DHT22;20951;50.818;4.344;2022-12-20T03:03:05;12.40;99.90
34726;DHT22;20951;50.818;4.344;2022-12-20T03:05:55;12.40;99.90
34726;DHT22;20951;50.818;4.344;2022-12-20T03:08:22;12.40;99.90
34726;DHT22;20951;50.818;4.344;2022-12-20T03:10:50;12.50;99.90
34726;DHT22;20951;50.818;4.344;2022-12-20T03:13:16;12.50;99.90
34726;DHT22;20951;50.818;4.344;2022-12-20T03:15:42;12.40;99.90
34726;DHT22;20951;50.818;4.344;2022-12-20T03:18:08;12.40;99.90
34726;DHT22;20951;50.818;4.344;2022-12-20T03:20:34;12.40;99.90
34726;DHT22;20951;50.818;4.344;2022-12-20T03:23:00;12.40;99.90
34726;DHT22;20951;50.818;4.344;2022-12-20T03:25:26;12.40;99.90
34726;DHT22;20951;50.818;4.344;2022-12-20T03:27:52;12.50;99.90
34726;DHT22;20951;50.818;4.344;2022-12-20T03:30:18;12.40;99.90
34726;DHT22;20951;50.818;4.344;2022-12-20T03:32:43;12.40;99.90
34726;DHT22;20951;50.818;4.344;2022-12-20T03:35:10;12.40;99.90
34726;DHT22;20951;50.818;4.344;2022-12-20T03:37:36;12.50;99.90
34726;DHT22;20951;50.818;4.344;2022-12-20T03:40:02;12.40;99.90
34726;DHT22;20951;50.818;4.344;2022-12-20T03:42:28;12.50;99.90
34726;DHT22;20951;50.818;4.344;2022-12-20T03:44:54;12.50;99.90
34726;DHT22;20951;50.818;4.344;2022-12-20T03:47:20;12.40;99.90
34726;DHT22;20951;50.818;4.344;2022-12-20T03:49:46;12.30;99.90
34726;DHT22;20951;50.818;4.344;2022-12-20T03:52:12;12.30;99.90
34726;DHT22;20951;50.818;4.344;2022-12-20T03:54:38;12.30;99.90
34726;DHT22;20951;50.818;4.344;2022-12-20T03:57:04;12.30;99.90
34726;DHT22;20951;50.818;4.344;2022-12-20T03:59:29;12.30;99.90
34726;DHT22;20951;50.818;4.344;2022-12-20T04:01:55;12.30;99.90
34726;DHT22;20951;50.818;4.344;2022-12-20T04:04:21;12.40;99.90
34726;DHT22;20951;50.818;4.344;2022-12-20T04:06:47;12.30;99.90
34726;DHT22;20951;50.818;4.344;2022-12-20T04:09:13;12.40;99.90
34726;DHT22;20951;50.818;4.344;2022-12-20T04:11:39;12.40;99.90
34726;DHT22;20951;50.818;4.344;2022-12-20T04:14:06;12.50;99.90
34726;DHT22;20951;50.818;4.344;2022-12-20T04:16:32;12.40;99.90
34726;DHT22;20951;50.818;4.344;2022-12-20T04:18:58;12.30;99.90
34726;DHT22;20951;50.818;4.344;2022-12-20T04:21:26;12.30;99.90
34726;DHT22;20951;50.818;4.344;2022-12-20T04:23:52;12.40;99.90
34726;DHT22;20951;50.818;4.344;2022-12-20T04:26:19;12.40;99.90
34726;DHT22;20951;50.818;4.344;2022-12-20T04:28:46;12.40;99.90
34726;DHT22;20951;50.818;4.344;2022-12-20T04:31:11;12.50;99.90
34726;DHT22;20951;50.818;4.344;2022-12-20T04:33:37;12.40;99.90
34726;DHT22;20951;50.818;4.344;2022-12-20T04:36:04;12.40;99.90
34726;DHT22;20951;50.818;4.344;2022-12-20T04:38:30;12.50;99.90
34726;DHT22;20951;50.818;4.344;2022-12-20T04:40:56;12.50;99.90
34726;DHT22;20951;50.818;4.344;2022-12-20T04:43:23;12.50;99.90
34726;DHT22;20951;50.818;4.344;2022-12-20T04:45:51;12.50;99.90
34726;DHT22;20951;50.818;4.344;2022-12-20T04:48:18;12.50;99.90
34726;DHT22;20951;50.818;4.344;2022-12-20T04:50:48;12.50;99.90
34726;DHT22;20951;50.818;4.344;2022-12-20T04:53:14;12.50;99.90
34726;DHT22;20951;50.818;4.344;2022-12-20T04:55:59;12.40;99.90
34726;DHT22;20951;50.818;4.344;2022-12-20T04:58:25;12.50;99.90
34726;DHT22;20951;50.818;4.344;2022-12-20T05:00:51;12.50;99.90
34726;DHT22;20951;50.818;4.344;2022-12-20T05:03:21;12.50;99.90
34726;DHT22;20951;50.818;4.344;2022-12-20T05:05:47;12.50;99.90
34726;DHT22;20951;50.818;4.344;2022-12-20T05:08:13;12.60;99.90
34726;DHT22;20951;50.818;4.344;2022-12-20T05:10:39;12.50;99.90
34726;DHT22;20951;50.818;4.344;2022-12-20T05:13:05;12.40;99.90
34726;DHT22;20951;50.818;4.344;2022-12-20T05:15:31;12.50;99.90
34726;DHT22;20951;50.818;4.344;2022-12-20T05:17:57;12.50;99.90
34726;DHT22;20951;50.818;4.344;2022-12-20T05:20:26;12.50;99.90
34726;DHT22;20951;50.818;4.344;2022-12-20T05:22:52;12.50;99.90
34726;DHT22;20951;50.818;4.344;2022-12-20T05:25:43;12.40;99.90
34726;DHT22;20951;50.818;4.344;2022-12-20T05:28:28;12.50;99.90
34726;DHT22;20951;50.818;4.344;2022-12-20T05:30:54;12.50;99.90
34726;DHT22;20951;50.818;4.344;2022-12-20T05:33:21;12.50;99.90
34726;DHT22;20951;50.818;4.344;2022-12-20T05:35:46;12.50;99.90
34726;DHT22;20951;50.818;4.344;2022-12-20T05:38:12;12.50;99.90
34726;DHT22;20951;50.818;4.344;2022-12-20T05:40:39;12.50;99.90
34726;DHT22;20951;50.818;4.344;2022-12-20T05:43:05;12.50;99.90
34726;DHT22;20951;50.818;4.344;2022-12-20T05:45:31;12.40;99.90
34726;DHT22;20951;50.818;4.344;2022-12-20T05:47:57;12.40;99.90
34726;DHT22;20951;50.818;4.344;2022-12-20T05:50:23;12.40;99.90
34726;DHT22;20951;50.818;4.344;2022-12-20T05:52:49;12.50;99.90
34726;DHT22;20951;50.818;4.344;2022-12-20T05:55:15;12.50;99.90
34726;DHT22;20951;50.818;4.344;2022-12-20T05:57:41;12.40;99.90
34726;DHT22;20951;50.818;4.344;2022-12-20T06:00:11;12.40;99.90
34726;DHT22;20951;50.818;4.344;2022-12-20T06:02:37;12.40;99.90
34726;DHT22;20951;50.818;4.344;2022-12-20T06:05:03;12.50;99.90
34726;DHT22;20951;50.818;4.344;2022-12-20T06:07:29;12.50;99.90
34726;DHT22;20951;50.818;4.344;2022-12-20T06:09:56;12.50;99.90
34726;DHT22;20951;50.818;4.344;2022-12-20T06:12:23;12.60;99.90
34726;DHT22;20951;50.818;4.344;2022-12-20T06:14:49;12.60;99.90
34726;DHT22;20951;50.818;4.344;2022-12-20T06:17:16;12.60;99.90
34726;DHT22;20951;50.818;4.344;2022-12-20T06:19:41;12.60;99.90
34726;DHT22;20951;50.818;4.344;2022-12-20T06:22:08;12.70;99.90
34726;DHT22;20951;50.818;4.344;2022-12-20T06:24:35;12.70;99.90
34726;DHT22;20951;50.818;4.344;2022-12-20T06:27:01;12.70;99.90
34726;DHT22;20951;50.818;4.344;2022-12-20T06:29:27;12.70;99.90
34726;DHT22;20951;50.818;4.344;2022-12-20T06:31:53;12.80;99.90
34726;DHT22;20951;50.818;4.344;2022-12-20T06:34:19;12.80;99.90
34726;DHT22;20951;50.818;4.344;2022-12-20T06:36:46;12.80;99.90
34726;DHT22;20951;50.818;4.344;2022-12-20T06:39:12;12.90;99.90
34726;DHT22;20951;50.818;4.344;2022-12-20T06:41:39;12.90;99.90
34726;DHT22;20951;50.818;4.344;2022-12-20T06:44:05;12.90;99.90
34726;DHT22;20951;50.818;4.344;2022-12-20T06:46:31;13.00;99.90
34726;DHT22;20951;50.818;4.344;2022-12-20T06:48:56;13.00;99.90
34726;DHT22;20951;50.818;4.344;2022-12-20T06:51:22;13.10;99.90
34726;DHT22;20951;50.818;4.344;2022-12-20T06:53:48;13.10;99.90
34726;DHT22;20951;50.818;4.344;2022-12-20T06:56:14;13.00;99.90
34726;DHT22;20951;50.818;4.344;2022-12-20T06:58:40;13.00;99.90
34726;DHT22;20951;50.818;4.344;2022-12-20T07:01:05;12.90;99.90
34726;DHT22;20951;50.818;4.344;2022-12-20T07:03:31;12.80;99.90
34726;DHT22;20951;50.818;4.344;2022-12-20T07:05:57;12.60;99.90
34726;DHT22;20951;50.818;4.344;2022-12-20T07:08:24;12.40;99.90
34726;DHT22;20951;50.818;4.344;2022-12-20T07:10:50;12.30;99.90
34726;DHT22;20951;50.818;4.344;2022-12-20T07:13:19;12.30;99.90
34726;DHT22;20951;50.818;4.344;2022-12-20T07:15:45;12.10;99.90
34726;DHT22;20951;50.818;4.344;2022-12-20T07:18:11;12.00;99.90
34726;DHT22;20951;50.818;4.344;2022-12-20T07:20:37;11.70;99.90
34726;DHT22;20951;50.818;4.344;2022-12-20T07:23:03;11.70;99.90
34726;DHT22;20951;50.818;4.344;2022-12-20T07:25:29;11.60;99.90
34726;DHT22;20951;50.818;4.344;2022-12-20T07:27:55;11.50;99.90
34726;DHT22;20951;50.818;4.344;2022-12-20T07:30:20;11.50;99.90
34726;DHT22;20951;50.818;4.344;2022-12-20T07:32:47;11.40;99.90
34726;DHT22;20951;50.818;4.344;2022-12-20T07:35:14;11.30;99.90
34726;DHT22;20951;50.818;4.344;2022-12-20T07:37:42;11.20;99.90
34726;DHT22;20951;50.818;4.344;2022-12-20T07:40:10;11.10;99.90
34726;DHT22;20951;50.818;4.344;2022-12-20T07:42:40;11.10;99.90
34726;DHT22;20951;50.818;4.344;2022-12-20T07:45:06;11.10;99.90
34726;DHT22;20951;50.818;4.344;2022-12-20T07:47:33;11.00;99.90
34726;DHT22;20951;50.818;4.344;2022-12-20T07:50:00;11.00;99.90
34726;DHT22;20951;50.818;4.344;2022-12-20T07:52:28;10.90;99.90
34726;DHT22;20951;50.818;4.344;2022-12-20T07:55:00;10.90;99.90
34726;DHT22;20951;50.818;4.344;2022-12-20T07:57:38;10.90;99.90
34726;DHT22;20951;50.818;4.344;2022-12-20T08:00:07;10.80;99.90
34726;DHT22;20951;50.818;4.344;2022-12-20T08:02:38;10.80;99.90
34726;DHT22;20951;50.818;4.344;2022-12-20T08:05:07;10.80;99.90
34726;DHT22;20951;50.818;4.344;2022-12-20T08:07:35;10.90;99.90
34726;DHT22;20951;50.818;4.344;2022-12-20T08:10:03;10.90;99.90
34726;DHT22;20951;50.818;4.344;2022-12-20T08:12:29;10.90;99.90
34726;DHT22;20951;50.818;4.344;2022-12-20T08:14:56;10.90;99.90
34726;DHT22;20951;50.818;4.344;2022-12-20T08:17:22;10.90;99.90
34726;DHT22;20951;50.818;4.344;2022-12-20T08:19:48;10.80;99.90
34726;DHT22;20951;50.818;4.344;2022-12-20T08:22:18;10.80;99.90
34726;DHT22;20951;50.818;4.344;2022-12-20T08:24:44;10.90;99.90
34726;DHT22;20951;50.818;4.344;2022-12-20T08:27:10;10.90;99.90
34726;DHT22;20951;50.818;4.344;2022-12-20T08:29:37;10.90;99.90
34726;DHT22;20951;50.818;4.344;2022-12-20T08:32:03;10.90;99.90
34726;DHT22;20951;50.818;4.344;2022-12-20T08:34:29;10.90;99.90
34726;DHT22;20951;50.818;4.344;2022-12-20T08:36:55;10.90;99.90
34726;DHT22;20951;50.818;4.344;2022-12-20T08:39:21;10.90;99.90
34726;DHT22;20951;50.818;4.344;2022-12-20T08:41:47;11.00;99.90
34726;DHT22;20951;50.818;4.344;2022-12-20T08:44:14;11.00;99.90
34726;DHT22;20951;50.818;4.344;2022-12-20T08:46:40;11.10;99.90
34726;DHT22;20951;50.818;4.344;2022-12-20T08:49:06;11.10;99.90
34726;DHT22;20951;50.818;4.344;2022-12-20T08:51:32;11.20;99.90
34726;DHT22;20951;50.818;4.344;2022-12-20T08:53:59;11.20;99.90
34726;DHT22;20951;50.818;4.344;2022-12-20T08:56:25;11.20;99.90
34726;DHT22;20951;50.818;4.344;2022-12-20T08:58:52;11.20;99.90
34726;DHT22;20951;50.818;4.344;2022-12-20T09:01:19;11.20;99.90
34726;DHT22;20951;50.818;4.344;2022-12-20T09:03:46;11.20;99.90
34726;DHT22;20951;50.818;4.344;2022-12-20T09:06:16;11.20;99.90
34726;DHT22;20951;50.818;4.344;2022-12-20T09:08:43;11.10;99.90
34726;DHT22;20951;50.818;4.344;2022-12-20T09:11:12;11.10;99.90
34726;DHT22;20951;50.818;4.344;2022-12-20T09:13:39;11.20;99.90
34726;DHT22;20951;50.818;4.344;2022-12-20T09:16:06;11.30;99.90
34726;DHT22;20951;50.818;4.344;2022-12-20T09:18:32;11.40;99.90
34726;DHT22;20951;50.818;4.344;2022-12-20T09:20:59;11.40;99.90
34726;DHT22;20951;50.818;4.344;2022-12-20T09:23:26;11.40;99.90
34726;DHT22;20951;50.818;4.344;2022-12-20T09:25:52;11.40;99.90
34726;DHT22;20951;50.818;4.344;2022-12-20T09:28:18;11.50;99.90
34726;DHT22;20951;50.818;4.344;2022-12-20T09:30:44;11.50;99.90
34726;DHT22;20951;50.818;4.344;2022-12-20T09:33:10;11.50;99.90
34726;DHT22;20951;50.818;4.344;2022-12-20T09:35:45;11.50;99.90
34726;DHT22;20951;50.818;4.344;2022-12-20T09:38:12;11.60;99.90
34726;DHT22;20951;50.818;4.344;2022-12-20T09:40:46;11.60;99.90
34726;DHT22;20951;50.818;4.344;2022-12-20T09:43:14;11.50;99.90
34726;DHT22;20951;50.818;4.344;2022-12-20T09:45:41;11.40;99.90
34726;DHT22;20951;50.818;4.344;2022-12-20T09:48:22;11.40;99.90
34726;DHT22;20951;50.818;4.344;2022-12-20T09:54:04;11.40;99.90
34726;DHT22;20951;50.818;4.344;2022-12-20T09:56:35;11.40;99.90
34726;DHT22;20951;50.818;4.344;2022-12-20T09:59:10;11.30;99.90
34726;DHT22;20951;50.818;4.344;2022-12-20T10:01:38;11.20;99.90
34726;DHT22;20951;50.818;4.344;2022-12-20T10:07:20;11.10;99.90
34726;DHT22;20951;50.818;4.344;2022-12-20T10:20:40;11.20;99.90
34726;DHT22;20951;50.818;4.344;2022-12-20T10:23:12;11.20;99.90
34726;DHT22;20951;50.818;4.344;2022-12-20T10:25:40;11.20;99.90
34726;DHT22;20951;50.818;4.344;2022-12-20T10:28:14;11.20;99.90
34726;DHT22;20951;50.818;4.344;2022-12-20T10:30:41;11.20;99.90
34726;DHT22;20951;50.818;4.344;2022-12-20T10:33:15;11.30;99.90
34726;DHT22;20951;50.818;4.344;2022-12-20T10:35:44;11.20;99.90
34726;DHT22;20951;50.818;4.344;2022-12-20T10:38:11;11.20;99.90
34726;DHT22;20951;50.818;4.344;2022-12-20T10:40:46;11.20;99.90
34726;DHT22;20951;50.818;4.344;2022-12-20T10:43:19;11.20;99.90
34726;DHT22;20951;50.818;4.344;2022-12-20T10:46:04;11.30;99.90
34726;DHT22;20951;50.818;4.344;2022-12-20T10:48:36;11.20;99.90
34726;DHT22;20951;50.818;4.344;2022-12-20T10:53:57;11.10;99.90
34726;DHT22;20951;50.818;4.344;2022-12-20T10:56:26;11.10;99.90
34726;DHT22;20951;50.818;4.344;2022-12-20T11:01:43;11.00;99.90
34726;DHT22;20951;50.818;4.344;2022-12-20T11:06:54;11.10;99.90
34726;DHT22;20951;50.818;4.344;2022-12-20T11:09:33;11.10;99.90
34726;DHT22;20951;50.818;4.344;2022-12-20T11:12:14;11.10;99.90
34726;DHT22;20951;50.818;4.344;2022-12-20T11:14:42;11.00;99.90
34726;DHT22;20951;50.818;4.344;2022-12-20T11:17:23;11.00;99.90
34726;DHT22;20951;50.818;4.344;2022-12-20T11:25:21;11.00;99.90
34726;DHT22;20951;50.818;4.344;2022-12-20T11:30:21;11.20;99.90
34726;DHT22;20951;50.818;4.344;2022-12-20T11:33:04;11.10;99.90
34726;DHT22;20951;50.818;4.344;2022-12-20T11:38:32;11.00;99.90
34726;DHT22;20951;50.818;4.344;2022-12-20T11:41:16;11.10;99.90
34726;DHT22;20951;50.818;4.344;2022-12-20T11:44:12;11.00;99.90
34726;DHT22;20951;50.818;4.344;2022-12-20T11:54:48;10.90;99.90
34726;DHT22;20951;50.818;4.344;2022-12-20T11:57:24;10.90;99.90
34726;DHT22;20951;50.818;4.344;2022-12-20T11:59:55;10.80;99.90
34726;DHT22;20951;50.818;4.344;2022-12-20T12:02:46;10.80;99.90
34726;DHT22;20951;50.818;4.344;2022-12-20T12:05:21;10.80;99.90
34726;DHT22;20951;50.818;4.344;2022-12-20T12:07:53;10.80;99.90
34726;DHT22;20951;50.818;4.344;2022-12-20T12:10:23;10.70;99.90
34726;DHT22;20951;50.818;4.344;2022-12-20T12:15:46;10.70;99.90
34726;DHT22;20951;50.818;4.344;2022-12-20T12:18:28;10.80;99.90
34726;DHT22;20951;50.818;4.344;2022-12-20T12:21:09;10.80;99.90
34726;DHT22;20951;50.818;4.344;2022-12-20T12:26:27;10.70;99.90
34726;DHT22;20951;50.818;4.344;2022-12-20T12:28:56;10.70;99.90
34726;DHT22;20951;50.818;4.344;2022-12-20T12:31:37;10.70;99.90
34726;DHT22;20951;50.818;4.344;2022-12-20T12:34:30;10.70;99.90
34726;DHT22;20951;50.818;4.344;2022-12-20T12:40:12;10.60;99.90
34726;DHT22;20951;50.818;4.344;2022-12-20T12:45:54;10.60;99.90
34726;DHT22;20951;50.818;4.344;2022-12-20T12:48:40;10.60;99.90
34726;DHT22;20951;50.818;4.344;2022-12-20T12:51:07;10.70;99.90
34726;DHT22;20951;50.818;4.344;2022-12-20T12:53:42;10.60;99.90
34726;DHT22;20951;50.818;4.344;2022-12-20T13:18:00;11.00;99.90
34726;DHT22;20951;50.818;4.344;2022-12-20T13:20:32;11.00;99.90
34726;DHT22;20951;50.818;4.344;2022-12-20T13:30:44;10.90;99.90
34726;DHT22;20951;50.818;4.344;2022-12-20T13:33:24;10.80;99.90
34726;DHT22;20951;50.818;4.344;2022-12-20T13:36:28;10.90;99.90
34726;DHT22;20951;50.818;4.344;2022-12-20T13:38:52;11.00;99.90
34726;DHT22;20951;50.818;4.344;2022-12-20T13:43:50;10.80;99.90
34726;DHT22;20951;50.818;4.344;2022-12-20T13:46:57;10.80;99.90
34726;DHT22;20951;50.818;4.344;2022-12-20T13:49:25;10.80;99.90
34726;DHT22;20951;50.818;4.344;2022-12-20T13:54:40;10.80;99.90
34726;DHT22;20951;50.818;4.344;2022-12-20T13:57:13;10.80;99.90
34726;DHT22;20951;50.818;4.344;2022-12-20T13:59:45;10.70;99.90
34726;DHT22;20951;50.818;4.344;2022-12-20T14:02:21;10.80;99.90
34726;DHT22;20951;50.818;4.344;2022-12-20T14:04:57;10.80;99.90
34726;DHT22;20951;50.818;4.344;2022-12-20T14:07:24;10.80;99.90
34726;DHT22;20951;50.818;4.344;2022-12-20T14:09:57;10.80;99.90
34726;DHT22;20951;50.818;4.344;2022-12-20T14:12:23;10.90;99.90
34726;DHT22;20951;50.818;4.344;2022-12-20T14:14:51;10.80;99.90
34726;DHT22;20951;50.818;4.344;2022-12-20T14:17:28;10.90;99.90
34726;DHT22;20951;50.818;4.344;2022-12-20T14:20:03;10.80;99.90
34726;DHT22;20951;50.818;4.344;2022-12-20T14:22:30;10.80;99.90
34726;DHT22;20951;50.818;4.344;2022-12-20T14:24:57;10.80;99.90
34726;DHT22;20951;50.818;4.344;2022-12-20T14:27:24;10.80;99.90
34726;DHT22;20951;50.818;4.344;2022-12-20T14:29:52;10.80;99.90
34726;DHT22;20951;50.818;4.344;2022-12-20T14:32:18;10.80;99.90
34726;DHT22;20951;50.818;4.344;2022-12-20T14:34:45;10.90;99.90
34726;DHT22;20951;50.818;4.344;2022-12-20T14:42:36;10.80;99.90
34726;DHT22;20951;50.818;4.344;2022-12-20T14:47:36;10.80;99.90
34726;DHT22;20951;50.818;4.344;2022-12-20T14:50:19;10.80;99.90
34726;DHT22;20951;50.818;4.344;2022-12-20T14:52:46;10.70;99.90
34726;DHT22;20951;50.818;4.344;2022-12-20T14:55:19;10.80;99.90
34726;DHT22;20951;50.818;4.344;2022-12-20T14:57:53;10.80;99.90
34726;DHT22;20951;50.818;4.344;2022-12-20T15:08:26;10.80;99.90
34726;DHT22;20951;50.818;4.344;2022-12-20T15:11:02;10.80;99.90
34726;DHT22;20951;50.818;4.344;2022-12-20T15:13:42;10.80;99.90
34726;DHT22;20951;50.818;4.344;2022-12-20T15:16:34;10.80;99.90
34726;DHT22;20951;50.818;4.344;2022-12-20T15:19:01;10.80;99.90
34726;DHT22;20951;50.818;4.344;2022-12-20T15:21:34;10.80;99.90
34726;DHT22;20951;50.818;4.344;2022-12-20T15:24:04;10.70;99.90
34726;DHT22;20951;50.818;4.344;2022-12-20T15:26:32;10.70;99.90
34726;DHT22;20951;50.818;4.344;2022-12-20T15:28:58;10.70;99.90
34726;DHT22;20951;50.818;4.344;2022-12-20T15:31:26;10.80;99.90
34726;DHT22;20951;50.818;4.344;2022-12-20T15:33:53;10.80;99.90
34726;DHT22;20951;50.818;4.344;2022-12-20T15:36:25;10.80;99.90
34726;DHT22;20951;50.818;4.344;2022-12-20T15:38:52;10.80;99.90
34726;DHT22;20951;50.818;4.344;2022-12-20T15:41:30;10.90;99.90
34726;DHT22;20951;50.818;4.344;2022-12-20T15:44:02;10.90;99.90
34726;DHT22;20951;50.818;4.344;2022-12-20T15:46:29;10.80;99.90
34726;DHT22;20951;50.818;4.344;2022-12-20T15:48:56;10.80;99.90
34726;DHT22;20951;50.818;4.344;2022-12-20T15:51:34;10.80;99.90
34726;DHT22;20951;50.818;4.344;2022-12-20T15:54:04;10.90;99.90
34726;DHT22;20951;50.818;4.344;2022-12-20T15:56:31;10.80;99.90
34726;DHT22;20951;50.818;4.344;2022-12-20T15:58:57;10.80;99.90
34726;DHT22;20951;50.818;4.344;2022-12-20T16:01:24;10.70;99.90
34726;DHT22;20951;50.818;4.344;2022-12-20T16:03:52;10.60;99.90
34726;DHT22;20951;50.818;4.344;2022-12-20T16:06:18;10.60;99.90
34726;DHT22;20951;50.818;4.344;2022-12-20T16:08:44;10.60;99.90
34726;DHT22;20951;50.818;4.344;2022-12-20T16:11:28;10.70;99.90
34726;DHT22;20951;50.818;4.344;2022-12-20T16:13:56;10.80;99.90
34726;DHT22;20951;50.818;4.344;2022-12-20T16:16:24;10.70;99.90
34726;DHT22;20951;50.818;4.344;2022-12-20T16:18:50;10.70;99.90
34726;DHT22;20951;50.818;4.344;2022-12-20T16:21:26;10.80;99.90
34726;DHT22;20951;50.818;4.344;2022-12-20T16:23:53;10.80;99.90
34726;DHT22;20951;50.818;4.344;2022-12-20T16:26:22;10.80;99.90
34726;DHT22;20951;50.818;4.344;2022-12-20T16:28:50;10.80;99.90
34726;DHT22;20951;50.818;4.344;2022-12-20T16:31:32;10.80;99.90
34726;DHT22;20951;50.818;4.344;2022-12-20T16:34:00;10.80;99.90
34726;DHT22;20951;50.818;4.344;2022-12-20T16:36:27;10.70;99.90
34726;DHT22;20951;50.818;4.344;2022-12-20T16:38:54;10.70;99.90
34726;DHT22;20951;50.818;4.344;2022-12-20T16:41:25;10.70;99.90
34726;DHT22;20951;50.818;4.344;2022-12-20T16:43:53;10.70;99.90
34726;DHT22;20951;50.818;4.344;2022-12-20T16:46:21;10.70;99.90
34726;DHT22;20951;50.818;4.344;2022-12-20T16:48:47;10.70;99.90
34726;DHT22;20951;50.818;4.344;2022-12-20T16:51:29;10.70;99.90
34726;DHT22;20951;50.818;4.344;2022-12-20T16:56:23;10.70;99.90
34726;DHT22;20951;50.818;4.344;2022-12-20T16:58:49;10.70;99.90
34726;DHT22;20951;50.818;4.344;2022-12-20T17:01:23;10.80;99.90
34726;DHT22;20951;50.818;4.344;2022-12-20T17:03:51;10.70;99.90
34726;DHT22;20951;50.818;4.344;2022-12-20T17:06:17;10.70;99.90
34726;DHT22;20951;50.818;4.344;2022-12-20T17:08:44;10.70;99.90
34726;DHT22;20951;50.818;4.344;2022-12-20T17:11:25;10.70;99.90
34726;DHT22;20951;50.818;4.344;2022-12-20T17:13:52;10.70;99.90
34726;DHT22;20951;50.818;4.344;2022-12-20T17:16:19;10.70;99.90
34726;DHT22;20951;50.818;4.344;2022-12-20T17:18:50;10.70;99.90
34726;DHT22;20951;50.818;4.344;2022-12-20T17:24:04;10.70;99.90
34726;DHT22;20951;50.818;4.344;2022-12-20T17:26:32;10.70;99.90
34726;DHT22;20951;50.818;4.344;2022-12-20T17:28:58;10.70;99.90
34726;DHT22;20951;50.818;4.344;2022-12-20T17:31:33;10.70;99.90
34726;DHT22;20951;50.818;4.344;2022-12-20T17:34:23;10.70;99.90
34726;DHT22;20951;50.818;4.344;2022-12-20T17:36:51;10.80;99.90
34726;DHT22;20951;50.818;4.344;2022-12-20T17:39:18;10.80;99.90
34726;DHT22;20951;50.818;4.344;2022-12-20T17:41:45;10.90;99.90
34726;DHT22;20951;50.818;4.344;2022-12-20T17:44:25;10.80;99.90
34726;DHT22;20951;50.818;4.344;2022-12-20T17:46:51;10.80;99.90
34726;DHT22;20951;50.818;4.344;2022-12-20T17:49:18;10.80;99.90
34726;DHT22;20951;50.818;4.344;2022-12-20T17:51:45;10.70;99.90
34726;DHT22;20951;50.818;4.344;2022-12-20T17:54:20;10.70;99.90
34726;DHT22;20951;50.818;4.344;2022-12-20T17:56:46;10.70;99.90